sensor_id;sensor_type;location;lat;lon;timestamp;P1;durP1;ratioP1;P2;durP2;ratioP2
20000;SDS011;10161;41.188;-8.642;2022-10-29T00:03:49;15.97;;;4.90;;
20000;SDS011;10161;41.188;-8.642;2022-10-29T00:06:15;15.97;;;4.83;;
20000;SDS011;10161;41.188;-8.642;2022-10-29T00:08:42;15.17;;;5.80;;
20000;SDS011;10161;41.188;-8.642;2022-10-29T00:11:12;22.27;;;6.33;;
20000;SDS011;10161;41.188;-8.642;2022-10-29T00:13:54;18.70;;;6.20;;
20000;SDS011;10161;41.188;-8.642;2022-10-29T00:16:23;16.77;;;6.50;;
20000;SDS011;10161;41.188;-8.642;2022-10-29T00:18:52;19.30;;;7.10;;
20000;SDS011;10161;41.188;-8.642;2022-10-29T00:21:20;20.50;;;6.80;;
20000;SDS011;10161;41.188;-8.642;2022-10-29T00:23:51;14.30;;;6.07;;
20000;SDS011;10161;41.188;-8.642;2022-10-29T00:26:20;22.30;;;6.60;;
20000;SDS011;10161;41.188;-8.642;2022-10-29T00:28:50;16.33;;;6.63;;
20000;SDS011;10161;41.188;-8.642;2022-10-29T00:34:31;19.60;;;6.80;;
20000;SDS011;10161;41.188;-8.642;2022-10-29T00:36:57;16.63;;;5.77;;
20000;SDS011;10161;41.188;-8.642;2022-10-29T00:39:24;23.03;;;7.17;;
20000;SDS011;10161;41.188;-8.642;2022-10-29T00:41:53;17.13;;;6.10;;
20000;SDS011;10161;41.188;-8.642;2022-10-29T00:44:26;19.43;;;6.60;;
20000;SDS011;10161;41.188;-8.642;2022-10-29T00:46:56;27.07;;;7.30;;
20000;SDS011;10161;41.188;-8.642;2022-10-29T00:49:26;15.53;;;7.43;;
20000;SDS011;10161;41.188;-8.642;2022-10-29T00:51:54;21.80;;;7.90;;
20000;SDS011;10161;41.188;-8.642;2022-10-29T00:54:21;20.40;;;6.90;;
20000;SDS011;10161;41.188;-8.642;2022-10-29T00:56:49;27.13;;;8.03;;
20000;SDS011;10161;41.188;-8.642;2022-10-29T00:59:20;16.53;;;6.63;;
20000;SDS011;10161;41.188;-8.642;2022-10-29T01:01:48;14.57;;;5.57;;
20000;SDS011;10161;41.188;-8.642;2022-10-29T01:04:15;13.47;;;5.03;;
20000;SDS011;10161;41.188;-8.642;2022-10-29T01:06:42;18.60;;;6.53;;
20000;SDS011;10161;41.188;-8.642;2022-10-29T01:09:11;15.10;;;5.90;;
20000;SDS011;10161;41.188;-8.642;2022-10-29T01:15:03;22.07;;;7.63;;
20000;SDS011;10161;41.188;-8.642;2022-10-29T01:17:38;25.20;;;8.23;;
20000;SDS011;10161;41.188;-8.642;2022-10-29T01:23:10;26.43;;;8.43;;
20000;SDS011;10161;41.188;-8.642;2022-10-29T01:26:05;20.03;;;7.20;;
20000;SDS011;10161;41.188;-8.642;2022-10-29T01:28:47;27.57;;;9.43;;
20000;SDS011;10161;41.188;-8.642;2022-10-29T01:31:26;25.20;;;8.10;;
20000;SDS011;10161;41.188;-8.642;2022-10-29T01:33:58;19.47;;;7.77;;
20000;SDS011;10161;41.188;-8.642;2022-10-29T01:36:31;16.77;;;7.80;;
20000;SDS011;10161;41.188;-8.642;2022-10-29T01:39:04;22.17;;;7.73;;
20000;SDS011;10161;41.188;-8.642;2022-10-29T01:41:36;15.10;;;7.47;;
20000;SDS011;10161;41.188;-8.642;2022-10-29T01:44:10;15.73;;;6.87;;
20000;SDS011;10161;41.188;-8.642;2022-10-29T01:46:43;18.13;;;7.33;;
20000;SDS011;10161;41.188;-8.642;2022-10-29T01:49:13;12.17;;;6.63;;
20000;SDS011;10161;41.188;-8.642;2022-10-29T01:51:44;18.80;;;7.60;;
20000;SDS011;10161;41.188;-8.642;2022-10-29T01:54:12;13.93;;;6.63;;
20000;SDS011;10161;41.188;-8.642;2022-10-29T01:56:39;20.63;;;7.53;;
20000;SDS011;10161;41.188;-8.642;2022-10-29T01:59:07;14.60;;;7.33;;
20000;SDS011;10161;41.188;-8.642;2022-10-29T02:01:40;19.43;;;7.17;;
20000;SDS011;10161;41.188;-8.642;2022-10-29T02:04:17;18.60;;;7.03;;
20000;SDS011;10161;41.188;-8.642;2022-10-29T02:06:52;16.93;;;7.30;;
20000;SDS011;10161;41.188;-8.642;2022-10-29T02:09:26;10.73;;;5.77;;
20000;SDS011;10161;41.188;-8.642;2022-10-29T02:11:58;15.70;;;8.50;;
20000;SDS011;10161;41.188;-8.642;2022-10-29T02:14:29;14.83;;;6.93;;
20000;SDS011;10161;41.188;-8.642;2022-10-29T02:17:00;15.03;;;7.13;;
20000;SDS011;10161;41.188;-8.642;2022-10-29T02:19:28;15.93;;;6.57;;
20000;SDS011;10161;41.188;-8.642;2022-10-29T02:21:55;13.03;;;6.23;;
20000;SDS011;10161;41.188;-8.642;2022-10-29T02:24:22;11.00;;;6.40;;
20000;SDS011;10161;41.188;-8.642;2022-10-29T02:26:49;20.10;;;7.30;;
20000;SDS011;10161;41.188;-8.642;2022-10-29T02:29:16;9.03;;;6.20;;
20000;SDS011;10161;41.188;-8.642;2022-10-29T02:31:43;11.77;;;6.33;;
20000;SDS011;10161;41.188;-8.642;2022-10-29T02:34:12;10.67;;;6.40;;
20000;SDS011;10161;41.188;-8.642;2022-10-29T02:39:47;13.03;;;6.07;;
20000;SDS011;10161;41.188;-8.642;2022-10-29T02:42:14;11.80;;;6.00;;
20000;SDS011;10161;41.188;-8.642;2022-10-29T02:44:41;7.90;;;5.90;;
20000;SDS011;10161;41.188;-8.642;2022-10-29T02:47:08;11.87;;;6.20;;
20000;SDS011;10161;41.188;-8.642;2022-10-29T02:49:36;13.17;;;6.20;;
20000;SDS011;10161;41.188;-8.642;2022-10-29T02:52:03;14.93;;;6.60;;
20000;SDS011;10161;41.188;-8.642;2022-10-29T02:54:30;14.27;;;6.43;;
20000;SDS011;10161;41.188;-8.642;2022-10-29T02:56:57;11.47;;;6.43;;
20000;SDS011;10161;41.188;-8.642;2022-10-29T02:59:24;13.97;;;6.80;;
20000;SDS011;10161;41.188;-8.642;2022-10-29T03:01:51;10.00;;;6.00;;
20000;SDS011;10161;41.188;-8.642;2022-10-29T03:04:18;12.30;;;6.30;;
20000;SDS011;10161;41.188;-8.642;2022-10-29T03:06:46;11.70;;;6.40;;
20000;SDS011;10161;41.188;-8.642;2022-10-29T03:09:13;11.90;;;5.80;;
20000;SDS011;10161;41.188;-8.642;2022-10-29T03:11:40;17.00;;;7.00;;
20000;SDS011;10161;41.188;-8.642;2022-10-29T03:14:07;17.57;;;6.87;;
20000;SDS011;10161;41.188;-8.642;2022-10-29T03:16:34;15.57;;;6.80;;
20000;SDS011;10161;41.188;-8.642;2022-10-29T03:19:01;12.33;;;6.67;;
20000;SDS011;10161;41.188;-8.642;2022-10-29T03:21:28;14.37;;;6.20;;
20000;SDS011;10161;41.188;-8.642;2022-10-29T03:26:47;18.47;;;7.10;;
20000;SDS011;10161;41.188;-8.642;2022-10-29T03:29:14;9.87;;;6.60;;
20000;SDS011;10161;41.188;-8.642;2022-10-29T03:31:41;16.63;;;6.40;;
20000;SDS011;10161;41.188;-8.642;2022-10-29T03:34:07;11.60;;;6.40;;
20000;SDS011;10161;41.188;-8.642;2022-10-29T03:36:34;17.30;;;6.20;;
20000;SDS011;10161;41.188;-8.642;2022-10-29T03:39:01;10.30;;;5.20;;
20000;SDS011;10161;41.188;-8.642;2022-10-29T03:41:30;10.90;;;5.90;;
20000;SDS011;10161;41.188;-8.642;2022-10-29T03:43:56;12.50;;;6.20;;
20000;SDS011;10161;41.188;-8.642;2022-10-29T03:46:23;15.70;;;5.43;;
20000;SDS011;10161;41.188;-8.642;2022-10-29T03:48:50;13.03;;;5.50;;
20000;SDS011;10161;41.188;-8.642;2022-10-29T03:51:17;15.57;;;6.60;;
20000;SDS011;10161;41.188;-8.642;2022-10-29T03:53:44;11.20;;;6.20;;
20000;SDS011;10161;41.188;-8.642;2022-10-29T03:56:11;10.77;;;6.27;;
20000;SDS011;10161;41.188;-8.642;2022-10-29T03:58:39;13.13;;;6.63;;
20000;SDS011;10161;41.188;-8.642;2022-10-29T04:01:07;11.97;;;6.00;;
20000;SDS011;10161;41.188;-8.642;2022-10-29T04:03:35;10.90;;;5.57;;
20000;SDS011;10161;41.188;-8.642;2022-10-29T04:06:07;14.10;;;6.40;;
20000;SDS011;10161;41.188;-8.642;2022-10-29T04:08:35;15.33;;;6.00;;
20000;SDS011;10161;41.188;-8.642;2022-10-29T04:11:02;10.87;;;6.27;;
20000;SDS011;10161;41.188;-8.642;2022-10-29T04:13:29;13.70;;;6.33;;
20000;SDS011;10161;41.188;-8.642;2022-10-29T04:15:57;10.83;;;5.80;;
20000;SDS011;10161;41.188;-8.642;2022-10-29T04:18:24;10.70;;;6.07;;
20000;SDS011;10161;41.188;-8.642;2022-10-29T04:20:51;10.57;;;7.23;;
20000;SDS011;10161;41.188;-8.642;2022-10-29T04:23:19;16.00;;;6.83;;
20000;SDS011;10161;41.188;-8.642;2022-10-29T04:25:53;11.60;;;6.73;;
20000;SDS011;10161;41.188;-8.642;2022-10-29T04:28:21;16.80;;;5.97;;
20000;SDS011;10161;41.188;-8.642;2022-10-29T04:30:48;10.60;;;5.70;;
20000;SDS011;10161;41.188;-8.642;2022-10-29T04:33:16;10.43;;;5.30;;
20000;SDS011;10161;41.188;-8.642;2022-10-29T04:35:43;13.00;;;6.60;;
20000;SDS011;10161;41.188;-8.642;2022-10-29T04:38:11;6.10;;;5.10;;
20000;SDS011;10161;41.188;-8.642;2022-10-29T04:40:38;8.43;;;5.63;;
20000;SDS011;10161;41.188;-8.642;2022-10-29T04:43:04;9.87;;;5.83;;
20000;SDS011;10161;41.188;-8.642;2022-10-29T04:45:31;13.27;;;5.80;;
20000;SDS011;10161;41.188;-8.642;2022-10-29T04:47:58;16.37;;;5.90;;
20000;SDS011;10161;41.188;-8.642;2022-10-29T04:50:27;11.33;;;5.97;;
20000;SDS011;10161;41.188;-8.642;2022-10-29T04:52:56;10.23;;;5.77;;
20000;SDS011;10161;41.188;-8.642;2022-10-29T04:58:23;10.27;;;5.43;;
20000;SDS011;10161;41.188;-8.642;2022-10-29T05:00:50;13.70;;;5.83;;
20000;SDS011;10161;41.188;-8.642;2022-10-29T05:03:17;18.23;;;6.33;;
20000;SDS011;10161;41.188;-8.642;2022-10-29T05:05:45;13.50;;;8.10;;
20000;SDS011;10161;41.188;-8.642;2022-10-29T05:08:12;13.37;;;8.53;;
20000;SDS011;10161;41.188;-8.642;2022-10-29T05:10:39;14.00;;;7.53;;
20000;SDS011;10161;41.188;-8.642;2022-10-29T05:13:07;12.10;;;6.90;;
20000;SDS011;10161;41.188;-8.642;2022-10-29T05:15:36;7.40;;;6.03;;
20000;SDS011;10161;41.188;-8.642;2022-10-29T05:18:03;12.13;;;6.43;;
20000;SDS011;10161;41.188;-8.642;2022-10-29T05:20:31;13.13;;;6.10;;
20000;SDS011;10161;41.188;-8.642;2022-10-29T05:22:59;9.20;;;5.50;;
20000;SDS011;10161;41.188;-8.642;2022-10-29T05:25:27;9.10;;;5.23;;
20000;SDS011;10161;41.188;-8.642;2022-10-29T05:27:59;8.67;;;5.27;;
20000;SDS011;10161;41.188;-8.642;2022-10-29T05:30:27;10.70;;;5.27;;
20000;SDS011;10161;41.188;-8.642;2022-10-29T05:32:54;11.10;;;5.40;;
20000;SDS011;10161;41.188;-8.642;2022-10-29T05:35:21;9.97;;;5.33;;
20000;SDS011;10161;41.188;-8.642;2022-10-29T05:37:49;14.70;;;5.63;;
20000;SDS011;10161;41.188;-8.642;2022-10-29T05:40:18;13.37;;;5.90;;
20000;SDS011;10161;41.188;-8.642;2022-10-29T05:42:46;14.87;;;6.10;;
20000;SDS011;10161;41.188;-8.642;2022-10-29T05:45:13;16.27;;;6.13;;
20000;SDS011;10161;41.188;-8.642;2022-10-29T05:47:40;12.53;;;5.53;;
20000;SDS011;10161;41.188;-8.642;2022-10-29T05:50:07;11.37;;;6.10;;
20000;SDS011;10161;41.188;-8.642;2022-10-29T05:52:35;12.13;;;5.90;;
20000;SDS011;10161;41.188;-8.642;2022-10-29T05:55:02;15.80;;;6.17;;
20000;SDS011;10161;41.188;-8.642;2022-10-29T05:57:30;12.53;;;5.70;;
20000;SDS011;10161;41.188;-8.642;2022-10-29T05:59:57;15.10;;;6.30;;
20000;SDS011;10161;41.188;-8.642;2022-10-29T06:02:24;10.70;;;5.60;;
20000;SDS011;10161;41.188;-8.642;2022-10-29T06:04:51;13.80;;;6.63;;
20000;SDS011;10161;41.188;-8.642;2022-10-29T06:07:18;22.67;;;8.57;;
20000;SDS011;10161;41.188;-8.642;2022-10-29T06:09:45;19.87;;;8.50;;
20000;SDS011;10161;41.188;-8.642;2022-10-29T06:12:12;17.03;;;8.13;;
20000;SDS011;10161;41.188;-8.642;2022-10-29T06:14:40;14.50;;;7.93;;
20000;SDS011;10161;41.188;-8.642;2022-10-29T06:17:09;31.97;;;9.80;;
20000;SDS011;10161;41.188;-8.642;2022-10-29T06:19:36;45.73;;;10.07;;
20000;SDS011;10161;41.188;-8.642;2022-10-29T06:22:03;24.67;;;8.83;;
20000;SDS011;10161;41.188;-8.642;2022-10-29T06:24:30;33.27;;;9.10;;
20000;SDS011;10161;41.188;-8.642;2022-10-29T06:26:57;22.33;;;9.47;;
20000;SDS011;10161;41.188;-8.642;2022-10-29T06:29:24;21.90;;;8.43;;
20000;SDS011;10161;41.188;-8.642;2022-10-29T06:31:52;33.30;;;9.70;;
20000;SDS011;10161;41.188;-8.642;2022-10-29T06:34:19;31.33;;;9.33;;
20000;SDS011;10161;41.188;-8.642;2022-10-29T06:36:46;26.63;;;9.00;;
20000;SDS011;10161;41.188;-8.642;2022-10-29T06:39:13;26.40;;;8.97;;
20000;SDS011;10161;41.188;-8.642;2022-10-29T06:41:39;21.87;;;8.43;;
20000;SDS011;10161;41.188;-8.642;2022-10-29T06:44:06;23.33;;;7.43;;
20000;SDS011;10161;41.188;-8.642;2022-10-29T06:46:33;27.10;;;9.77;;
20000;SDS011;10161;41.188;-8.642;2022-10-29T06:49:01;24.80;;;9.30;;
20000;SDS011;10161;41.188;-8.642;2022-10-29T06:51:28;27.33;;;9.50;;
20000;SDS011;10161;41.188;-8.642;2022-10-29T06:53:55;30.77;;;8.17;;
20000;SDS011;10161;41.188;-8.642;2022-10-29T06:56:22;27.07;;;8.03;;
20000;SDS011;10161;41.188;-8.642;2022-10-29T06:58:49;25.10;;;7.63;;
20000;SDS011;10161;41.188;-8.642;2022-10-29T07:01:16;20.10;;;6.63;;
20000;SDS011;10161;41.188;-8.642;2022-10-29T07:03:43;18.33;;;6.70;;
20000;SDS011;10161;41.188;-8.642;2022-10-29T07:06:11;24.00;;;7.87;;
20000;SDS011;10161;41.188;-8.642;2022-10-29T07:08:38;21.83;;;8.10;;
20000;SDS011;10161;41.188;-8.642;2022-10-29T07:11:05;17.13;;;6.63;;
20000;SDS011;10161;41.188;-8.642;2022-10-29T07:13:32;13.73;;;7.17;;
20000;SDS011;10161;41.188;-8.642;2022-10-29T07:15:58;17.53;;;7.90;;
20000;SDS011;10161;41.188;-8.642;2022-10-29T07:18:25;11.33;;;7.03;;
20000;SDS011;10161;41.188;-8.642;2022-10-29T07:20:52;14.97;;;8.43;;
20000;SDS011;10161;41.188;-8.642;2022-10-29T07:23:21;15.43;;;8.20;;
20000;SDS011;10161;41.188;-8.642;2022-10-29T07:25:50;18.03;;;8.63;;
20000;SDS011;10161;41.188;-8.642;2022-10-29T07:28:18;17.00;;;8.57;;
20000;SDS011;10161;41.188;-8.642;2022-10-29T07:30:49;13.13;;;7.60;;
20000;SDS011;10161;41.188;-8.642;2022-10-29T07:33:16;12.07;;;7.30;;
20000;SDS011;10161;41.188;-8.642;2022-10-29T07:35:43;18.47;;;8.73;;
20000;SDS011;10161;41.188;-8.642;2022-10-29T07:38:11;18.23;;;7.60;;
20000;SDS011;10161;41.188;-8.642;2022-10-29T07:40:45;14.43;;;7.43;;
20000;SDS011;10161;41.188;-8.642;2022-10-29T07:43:13;19.87;;;8.33;;
20000;SDS011;10161;41.188;-8.642;2022-10-29T07:45:40;19.03;;;8.90;;
20000;SDS011;10161;41.188;-8.642;2022-10-29T07:48:08;20.20;;;7.60;;
20000;SDS011;10161;41.188;-8.642;2022-10-29T07:50:35;21.40;;;8.80;;
20000;SDS011;10161;41.188;-8.642;2022-10-29T07:53:03;33.40;;;8.20;;
20000;SDS011;10161;41.188;-8.642;2022-10-29T07:55:31;20.80;;;7.97;;
20000;SDS011;10161;41.188;-8.642;2022-10-29T07:58:00;16.63;;;6.23;;
20000;SDS011;10161;41.188;-8.642;2022-10-29T08:00:29;16.80;;;7.37;;
20000;SDS011;10161;41.188;-8.642;2022-10-29T08:02:58;29.87;;;9.10;;
20000;SDS011;10161;41.188;-8.642;2022-10-29T08:05:25;21.33;;;7.70;;
20000;SDS011;10161;41.188;-8.642;2022-10-29T08:07:52;19.93;;;7.50;;
20000;SDS011;10161;41.188;-8.642;2022-10-29T08:10:19;18.60;;;6.80;;
20000;SDS011;10161;41.188;-8.642;2022-10-29T08:12:49;13.50;;;7.17;;
20000;SDS011;10161;41.188;-8.642;2022-10-29T08:15:18;10.67;;;6.70;;
20000;SDS011;10161;41.188;-8.642;2022-10-29T08:17:46;13.27;;;6.13;;
20000;SDS011;10161;41.188;-8.642;2022-10-29T08:20:13;14.30;;;6.60;;
20000;SDS011;10161;41.188;-8.642;2022-10-29T08:22:41;15.17;;;6.70;;
20000;SDS011;10161;41.188;-8.642;2022-10-29T08:25:09;11.80;;;6.53;;
20000;SDS011;10161;41.188;-8.642;2022-10-29T08:27:36;14.53;;;7.87;;
20000;SDS011;10161;41.188;-8.642;2022-10-29T08:30:03;12.17;;;7.70;;
20000;SDS011;10161;41.188;-8.642;2022-10-29T08:32:33;13.77;;;8.43;;
20000;SDS011;10161;41.188;-8.642;2022-10-29T08:35:00;15.20;;;8.47;;
20000;SDS011;10161;41.188;-8.642;2022-10-29T08:37:27;14.17;;;8.50;;
20000;SDS011;10161;41.188;-8.642;2022-10-29T08:39:54;10.40;;;7.73;;
20000;SDS011;10161;41.188;-8.642;2022-10-29T08:42:24;10.73;;;6.97;;
20000;SDS011;10161;41.188;-8.642;2022-10-29T08:45:03;16.10;;;7.13;;
20000;SDS011;10161;41.188;-8.642;2022-10-29T08:47:44;13.23;;;7.23;;
20000;SDS011;10161;41.188;-8.642;2022-10-29T08:50:19;11.73;;;7.10;;
20000;SDS011;10161;41.188;-8.642;2022-10-29T08:52:49;9.30;;;6.33;;
20000;SDS011;10161;41.188;-8.642;2022-10-29T08:55:17;18.77;;;14.20;;
20000;SDS011;10161;41.188;-8.642;2022-10-29T08:57:46;13.13;;;8.67;;
20000;SDS011;10161;41.188;-8.642;2022-10-29T09:00:17;15.13;;;8.77;;
20000;SDS011;10161;41.188;-8.642;2022-10-29T09:02:47;9.53;;;7.40;;
20000;SDS011;10161;41.188;-8.642;2022-10-29T09:05:18;14.30;;;8.07;;
20000;SDS011;10161;41.188;-8.642;2022-10-29T09:07:58;11.67;;;7.97;;
20000;SDS011;10161;41.188;-8.642;2022-10-29T09:10:37;8.40;;;6.80;;
20000;SDS011;10161;41.188;-8.642;2022-10-29T09:13:16;13.07;;;8.10;;
20000;SDS011;10161;41.188;-8.642;2022-10-29T09:15:53;9.50;;;6.50;;
20000;SDS011;10161;41.188;-8.642;2022-10-29T09:18:30;13.40;;;7.57;;
20000;SDS011;10161;41.188;-8.642;2022-10-29T09:21:07;12.23;;;6.90;;
20000;SDS011;10161;41.188;-8.642;2022-10-29T09:23:44;12.03;;;7.47;;
20000;SDS011;10161;41.188;-8.642;2022-10-29T09:26:21;15.10;;;9.43;;
20000;SDS011;10161;41.188;-8.642;2022-10-29T09:28:58;11.60;;;7.87;;
20000;SDS011;10161;41.188;-8.642;2022-10-29T09:31:33;17.70;;;7.30;;
20000;SDS011;10161;41.188;-8.642;2022-10-29T09:34:08;18.17;;;8.20;;
20000;SDS011;10161;41.188;-8.642;2022-10-29T09:36:37;12.10;;;7.47;;
20000;SDS011;10161;41.188;-8.642;2022-10-29T09:39:08;14.00;;;7.33;;
20000;SDS011;10161;41.188;-8.642;2022-10-29T09:41:37;18.67;;;7.90;;
20000;SDS011;10161;41.188;-8.642;2022-10-29T09:44:05;11.33;;;7.13;;
20000;SDS011;10161;41.188;-8.642;2022-10-29T09:46:37;12.50;;;8.10;;
20000;SDS011;10161;41.188;-8.642;2022-10-29T09:49:14;18.43;;;7.83;;
20000;SDS011;10161;41.188;-8.642;2022-10-29T09:51:49;17.37;;;7.50;;
20000;SDS011;10161;41.188;-8.642;2022-10-29T09:54:18;11.57;;;5.80;;
20000;SDS011;10161;41.188;-8.642;2022-10-29T09:56:46;13.97;;;6.30;;
20000;SDS011;10161;41.188;-8.642;2022-10-29T09:59:17;16.57;;;6.90;;
20000;SDS011;10161;41.188;-8.642;2022-10-29T10:01:48;15.40;;;8.13;;
20000;SDS011;10161;41.188;-8.642;2022-10-29T10:04:18;9.90;;;6.40;;
20000;SDS011;10161;41.188;-8.642;2022-10-29T10:07:00;17.40;;;6.90;;
20000;SDS011;10161;41.188;-8.642;2022-10-29T10:12:16;10.87;;;6.23;;
20000;SDS011;10161;41.188;-8.642;2022-10-29T10:14:43;8.90;;;5.30;;
20000;SDS011;10161;41.188;-8.642;2022-10-29T10:17:11;15.10;;;6.80;;
20000;SDS011;10161;41.188;-8.642;2022-10-29T10:19:43;13.97;;;7.43;;
20000;SDS011;10161;41.188;-8.642;2022-10-29T10:22:17;19.30;;;7.20;;
20000;SDS011;10161;41.188;-8.642;2022-10-29T10:24:45;22.60;;;7.40;;
20000;SDS011;10161;41.188;-8.642;2022-10-29T10:27:28;16.80;;;6.80;;
20000;SDS011;10161;41.188;-8.642;2022-10-29T10:30:09;14.80;;;7.40;;
20000;SDS011;10161;41.188;-8.642;2022-10-29T10:32:39;11.47;;;5.97;;
20000;SDS011;10161;41.188;-8.642;2022-10-29T10:37:53;11.20;;;5.57;;
20000;SDS011;10161;41.188;-8.642;2022-10-29T10:40:21;17.70;;;6.10;;
20000;SDS011;10161;41.188;-8.642;2022-10-29T10:42:50;14.73;;;6.00;;
20000;SDS011;10161;41.188;-8.642;2022-10-29T10:45:21;14.20;;;6.10;;
20000;SDS011;10161;41.188;-8.642;2022-10-29T10:47:52;14.47;;;6.83;;
20000;SDS011;10161;41.188;-8.642;2022-10-29T10:50:22;13.00;;;7.10;;
20000;SDS011;10161;41.188;-8.642;2022-10-29T10:52:55;10.80;;;5.77;;
20000;SDS011;10161;41.188;-8.642;2022-10-29T10:55:25;12.20;;;6.47;;
20000;SDS011;10161;41.188;-8.642;2022-10-29T10:57:58;14.07;;;6.00;;
20000;SDS011;10161;41.188;-8.642;2022-10-29T11:00:29;11.77;;;5.50;;
20000;SDS011;10161;41.188;-8.642;2022-10-29T11:03:08;18.00;;;7.00;;
20000;SDS011;10161;41.188;-8.642;2022-10-29T11:05:42;14.07;;;6.27;;
20000;SDS011;10161;41.188;-8.642;2022-10-29T11:08:14;16.27;;;5.90;;
20000;SDS011;10161;41.188;-8.642;2022-10-29T11:10:47;13.70;;;6.20;;
20000;SDS011;10161;41.188;-8.642;2022-10-29T11:13:18;15.30;;;5.30;;
20000;SDS011;10161;41.188;-8.642;2022-10-29T11:15:49;17.47;;;5.93;;
20000;SDS011;10161;41.188;-8.642;2022-10-29T11:18:19;16.80;;;6.50;;
20000;SDS011;10161;41.188;-8.642;2022-10-29T11:20:52;19.43;;;6.60;;
20000;SDS011;10161;41.188;-8.642;2022-10-29T11:23:30;20.70;;;6.40;;
20000;SDS011;10161;41.188;-8.642;2022-10-29T11:26:04;14.50;;;5.90;;
20000;SDS011;10161;41.188;-8.642;2022-10-29T11:28:36;12.90;;;5.60;;
20000;SDS011;10161;41.188;-8.642;2022-10-29T11:31:07;16.43;;;6.77;;
20000;SDS011;10161;41.188;-8.642;2022-10-29T11:33:40;18.37;;;6.30;;
20000;SDS011;10161;41.188;-8.642;2022-10-29T11:36:15;9.33;;;4.97;;
20000;SDS011;10161;41.188;-8.642;2022-10-29T11:38:47;11.73;;;4.90;;
20000;SDS011;10161;41.188;-8.642;2022-10-29T11:41:19;10.90;;;5.60;;
20000;SDS011;10161;41.188;-8.642;2022-10-29T11:43:48;14.50;;;5.57;;
20000;SDS011;10161;41.188;-8.642;2022-10-29T11:46:18;10.47;;;5.80;;
20000;SDS011;10161;41.188;-8.642;2022-10-29T11:49:25;12.47;;;5.40;;
20000;SDS011;10161;41.188;-8.642;2022-10-29T11:52:03;9.10;;;4.63;;
20000;SDS011;10161;41.188;-8.642;2022-10-29T11:54:42;12.60;;;5.30;;
20000;SDS011;10161;41.188;-8.642;2022-10-29T11:57:15;10.00;;;5.57;;
20000;SDS011;10161;41.188;-8.642;2022-10-29T11:59:50;9.53;;;5.00;;
20000;SDS011;10161;41.188;-8.642;2022-10-29T12:02:30;6.77;;;4.17;;
20000;SDS011;10161;41.188;-8.642;2022-10-29T12:05:05;8.23;;;4.50;;
20000;SDS011;10161;41.188;-8.642;2022-10-29T12:07:41;8.20;;;4.50;;
20000;SDS011;10161;41.188;-8.642;2022-10-29T12:10:36;8.03;;;4.77;;
20000;SDS011;10161;41.188;-8.642;2022-10-29T12:13:08;13.00;;;6.03;;
20000;SDS011;10161;41.188;-8.642;2022-10-29T12:15:42;8.63;;;4.70;;
20000;SDS011;10161;41.188;-8.642;2022-10-29T12:21:30;13.27;;;4.90;;
20000;SDS011;10161;41.188;-8.642;2022-10-29T12:24:06;10.70;;;5.10;;
20000;SDS011;10161;41.188;-8.642;2022-10-29T12:26:43;10.63;;;5.37;;
20000;SDS011;10161;41.188;-8.642;2022-10-29T12:29:13;9.37;;;4.47;;
20000;SDS011;10161;41.188;-8.642;2022-10-29T12:31:45;6.07;;;4.30;;
20000;SDS011;10161;41.188;-8.642;2022-10-29T12:34:21;10.60;;;3.83;;
20000;SDS011;10161;41.188;-8.642;2022-10-29T12:36:52;11.70;;;4.20;;
20000;SDS011;10161;41.188;-8.642;2022-10-29T12:39:25;7.37;;;3.80;;
20000;SDS011;10161;41.188;-8.642;2022-10-29T12:41:56;8.20;;;4.07;;
20000;SDS011;10161;41.188;-8.642;2022-10-29T12:44:27;6.10;;;3.50;;
20000;SDS011;10161;41.188;-8.642;2022-10-29T12:47:00;8.50;;;5.00;;
20000;SDS011;10161;41.188;-8.642;2022-10-29T12:49:35;9.77;;;4.47;;
20000;SDS011;10161;41.188;-8.642;2022-10-29T12:52:09;8.00;;;4.10;;
20000;SDS011;10161;41.188;-8.642;2022-10-29T12:54:39;6.67;;;3.20;;
20000;SDS011;10161;41.188;-8.642;2022-10-29T13:00:46;14.80;;;3.23;;
20000;SDS011;10161;41.188;-8.642;2022-10-29T13:09:15;8.07;;;4.03;;
20000;SDS011;10161;41.188;-8.642;2022-10-29T13:11:45;7.07;;;3.60;;
20000;SDS011;10161;41.188;-8.642;2022-10-29T13:14:13;13.63;;;3.60;;
20000;SDS011;10161;41.188;-8.642;2022-10-29T13:16:47;8.90;;;3.60;;
20000;SDS011;10161;41.188;-8.642;2022-10-29T13:19:22;11.00;;;3.60;;
20000;SDS011;10161;41.188;-8.642;2022-10-29T13:21:55;8.83;;;3.03;;
20000;SDS011;10161;41.188;-8.642;2022-10-29T13:24:23;13.70;;;4.27;;
20000;SDS011;10161;41.188;-8.642;2022-10-29T13:27:02;14.70;;;4.70;;
20000;SDS011;10161;41.188;-8.642;2022-10-29T13:29:40;10.77;;;4.17;;
20000;SDS011;10161;41.188;-8.642;2022-10-29T13:35:40;13.07;;;4.57;;
20000;SDS011;10161;41.188;-8.642;2022-10-29T13:38:13;15.40;;;5.30;;
20000;SDS011;10161;41.188;-8.642;2022-10-29T13:43:36;17.93;;;7.03;;
20000;SDS011;10161;41.188;-8.642;2022-10-29T13:49:15;16.70;;;3.90;;
20000;SDS011;10161;41.188;-8.642;2022-10-29T13:51:49;17.90;;;3.73;;
20000;SDS011;10161;41.188;-8.642;2022-10-29T13:54:21;11.90;;;2.93;;
20000;SDS011;10161;41.188;-8.642;2022-10-29T13:56:52;14.27;;;3.90;;
20000;SDS011;10161;41.188;-8.642;2022-10-29T13:59:23;15.87;;;3.83;;
20000;SDS011;10161;41.188;-8.642;2022-10-29T14:01:56;14.33;;;3.47;;
20000;SDS011;10161;41.188;-8.642;2022-10-29T14:04:29;9.77;;;3.30;;
20000;SDS011;10161;41.188;-8.642;2022-10-29T14:07:01;9.70;;;3.10;;
20000;SDS011;10161;41.188;-8.642;2022-10-29T14:09:33;11.83;;;4.03;;
20000;SDS011;10161;41.188;-8.642;2022-10-29T14:12:04;8.83;;;4.20;;
20000;SDS011;10161;41.188;-8.642;2022-10-29T14:14:33;7.93;;;4.00;;
20000;SDS011;10161;41.188;-8.642;2022-10-29T14:17:08;11.00;;;4.80;;
20000;SDS011;10161;41.188;-8.642;2022-10-29T14:19:36;10.07;;;4.70;;
20000;SDS011;10161;41.188;-8.642;2022-10-29T14:28:09;13.37;;;4.07;;
20000;SDS011;10161;41.188;-8.642;2022-10-29T14:30:39;10.37;;;4.33;;
20000;SDS011;10161;41.188;-8.642;2022-10-29T14:36:11;12.37;;;4.47;;
20000;SDS011;10161;41.188;-8.642;2022-10-29T14:38:44;9.00;;;3.80;;
20000;SDS011;10161;41.188;-8.642;2022-10-29T14:41:13;7.27;;;3.53;;
20000;SDS011;10161;41.188;-8.642;2022-10-29T14:43:40;8.90;;;2.83;;
20000;SDS011;10161;41.188;-8.642;2022-10-29T14:46:08;8.00;;;3.03;;
20000;SDS011;10161;41.188;-8.642;2022-10-29T14:48:37;10.23;;;3.50;;
20000;SDS011;10161;41.188;-8.642;2022-10-29T14:51:05;12.23;;;3.23;;
20000;SDS011;10161;41.188;-8.642;2022-10-29T14:53:32;15.30;;;3.97;;
20000;SDS011;10161;41.188;-8.642;2022-10-29T14:56:01;9.43;;;3.47;;
20000;SDS011;10161;41.188;-8.642;2022-10-29T14:58:33;12.10;;;3.70;;
20000;SDS011;10161;41.188;-8.642;2022-10-29T15:01:01;9.53;;;3.67;;
20000;SDS011;10161;41.188;-8.642;2022-10-29T15:06:27;8.47;;;4.03;;
20000;SDS011;10161;41.188;-8.642;2022-10-29T15:08:55;10.60;;;4.30;;
20000;SDS011;10161;41.188;-8.642;2022-10-29T15:11:34;16.07;;;4.93;;
20000;SDS011;10161;41.188;-8.642;2022-10-29T15:14:03;16.17;;;5.30;;
20000;SDS011;10161;41.188;-8.642;2022-10-29T15:16:31;18.20;;;5.17;;
20000;SDS011;10161;41.188;-8.642;2022-10-29T15:19:09;11.93;;;5.23;;
20000;SDS011;10161;41.188;-8.642;2022-10-29T15:21:38;17.50;;;5.67;;
20000;SDS011;10161;41.188;-8.642;2022-10-29T15:24:06;16.90;;;5.80;;
20000;SDS011;10161;41.188;-8.642;2022-10-29T15:26:42;10.87;;;4.73;;
20000;SDS011;10161;41.188;-8.642;2022-10-29T15:29:15;12.43;;;5.30;;
20000;SDS011;10161;41.188;-8.642;2022-10-29T15:32:02;15.07;;;5.30;;
20000;SDS011;10161;41.188;-8.642;2022-10-29T15:34:30;12.50;;;5.10;;
20000;SDS011;10161;41.188;-8.642;2022-10-29T15:37:12;12.80;;;4.67;;
20000;SDS011;10161;41.188;-8.642;2022-10-29T15:42:27;19.37;;;5.40;;
20000;SDS011;10161;41.188;-8.642;2022-10-29T15:45:07;13.93;;;5.50;;